ADDS METAR Data INFO
IDs: Format: Raw Decoded Include TAF

Data at: 1841 UTC 17 Oct 2017

METAR for:KPGD (Punta Gorda/Charlott, FL, US)
Text:KPGD 171753Z 06006KT 10SM CLR 28/22 A3002 RMK AO2 SLP165 T02780222 10278 20239 58014
Temperature: 27.8°C ( 82°F)
Dewpoint: 22.2°C ( 72°F) [RH = 72%]
Pressure (altimeter):30.02 inches Hg (1016.7 mb) [Sea level pressure: 1016.5 mb]
Winds:from the ENE (60 degrees) at 7 MPH (6 knots; 3.1 m/s)
Visibility:10 or more sm (16+ km)
Ceiling:at least 12,000 feet AGL
Clouds:sky clear below 12,000 feet AGL